KILG/ILG METAR and TAF weather

Enter ICAO airport designator
Station Type Date Time Source
KILG METAR 2022/01/18 07:51 UTC NOAA

KILG 180751Z AUTO 30015G24KT 10SM OVC039 02/M06 A2972 RMK AO2 SLP065 T00171061 $


Station Type Date Time Source
KILG Decoded METAR 2022/01/18 07:51 UTC NOAA

WILMINGTON NEW CASTLE CO, DE, United States (KILG) 39-40N 075-36W 28M
Jan 18, 2022 - 02:51 AM EST / 2022.01.18 0751 UTC
Wind: from the WNW (300 degrees) at 17 MPH (15 KT) gusting to 28 MPH (24 KT):0
Visibility: 10 mile(s):0
Sky conditions: overcast
Temperature: 35.1 F (1.7 C)
Dew Point: 21.0 F (-6.1 C)
Relative Humidity: 56%
Pressure (altimeter): 29.72 in. Hg (1006 hPa)
ob: KILG 180751Z AUTO 30015G24KT 10SM OVC039 02/M06 A2972 RMK AO2 SLP065 T00171061
cycle: 8

Station Type Date Time Source
KILG TAF 2022/01/18 06:27 UTC NOAA

TAF KILG 180524Z 1806/1906 29016G26KT P6SM BKN050
FM181000 29014G24KT P6SM SCT050 BKN100
FM181500 29015G25KT P6SM BKN050
FM182200 28010KT P6SM BKN250
FM190200 24005KT P6SM SCT250

Example: see airport list